Congonhinhas, Brazil
Current Conditions -  °F | °C
As of 5:00 PM on Thursday 30 Oct 2014 (Local Time) from SBLO Reporting Station
Few Clouds Few Clouds  
Wind Chill: 99°   Ceiling: Unl
Heat Index: 99°   Visibility: 6mi
Dew Point: 54°   Wind: 6mph
Humidity: 22%   Direction: 330°NNW
Pressure: 29.74"   Gusts: NA
Location:  23.55°S, 50.55°W
Report Text: SBLO 301900Z 33005KT 9999 FEW040 37/12 Q1007
Loading
Personal Weather Stations






























Interactive Weather Map
Tropical Storm Tracking
New forecast layout! Learn more

10-Day Weather Forecast

Advertisements
Track Severe Weather on mobile